PWSweather.com
Personal Weather Stations
Station Observations
WEATHERMOR
MorskoSI

MorskoSI

Lat: 46.075894, Lon: 13.634103

Elevation: 149

Station Type: WS2350

http://vp-morskovreme.com

Latest ConditionsUpdated 11:30:00 PM GMT+01:01 Sunday, Jan 20, 2019
Currently Today's Max Today's Min Today's Average
Temperature 36.5°F2.5°C 45.3°F7.4°C 32.2°F0.1°C 37.0°F2.8°C
Dew Point 30.0°F-1.1°C 30.8°F-0.7°C 24.2°F-4.3°C 27.3°F-2.6°C
Winds 9.5 mph N15.3 kmh N 9.5 mph -15.3 kmh - - 4.8 mph 7.7 kmh
Wind Gusts 17.2 mph27.7 kmh 17.4 mph28.0 kmh - -
Humidity 77% 78% 55% 68%
Pressure 30.07 in1018.3 mb 30.07 in1018.3 mb 29.96 in1014.6 mb -
Hour Temp Dew Point Humidity Winds Wind Gusts Pressure Precip Precip Rate Daily Precip Total
11:30 PM 36.5°F2.5°C 30.0°F-1.1°C 77% 9.5 mph N15.3 kmh N 17.2 mph27.7 kmh 30.07 in1018.3 mb 0.00 in0.0 mm 0.00 in0.0 mm 0.00 in0.0 mm
11:20 PM 36.3°F2.4°C 29.8°F-1.2°C 77% 8.5 mph N13.7 kmh N 15.9 mph25.6 kmh 30.07 in1018.3 mb 0.00 in0.0 mm 0.00 in0.0 mm 0.00 in0.0 mm
11:10 PM 36.1°F2.3°C 29.6°F-1.3°C 77% 7.7 mph N12.4 kmh N 13.6 mph21.9 kmh 30.07 in1018.3 mb 0.00 in0.0 mm 0.00 in0.0 mm 0.00 in0.0 mm
11:00 PM 36.1°F2.3°C 29.9°F-1.2°C 78% 7.4 mph N11.9 kmh N 12.3 mph19.8 kmh 30.07 in1018.3 mb 0.00 in0.0 mm 0.00 in0.0 mm 0.00 in0.0 mm
10:50 PM 36.0°F2.2°C 29.8°F-1.2°C 78% 7.6 mph N12.2 kmh N 13.4 mph21.6 kmh 30.07 in1018.3 mb 0.00 in0.0 mm 0.00 in0.0 mm 0.00 in0.0 mm
10:40 PM 35.4°F1.9°C 29.2°F-1.6°C 78% 7.7 mph NNE12.4 kmh NNE 12.8 mph20.6 kmh 30.07 in1018.3 mb 0.00 in0.0 mm 0.00 in0.0 mm 0.00 in0.0 mm
10:30 PM 35.4°F1.9°C 29.2°F-1.6°C 78% 5.9 mph NNE9.5 kmh NNE 11.4 mph18.3 kmh 30.07 in1018.3 mb 0.00 in0.0 mm 0.00 in0.0 mm 0.00 in0.0 mm
10:20 PM 34.9°F1.6°C 28.7°F-1.8°C 78% 7.5 mph NNE12.1 kmh NNE 13.2 mph21.2 kmh 30.07 in1018.3 mb 0.00 in0.0 mm 0.00 in0.0 mm 0.00 in0.0 mm
10:10 PM 34.5°F1.4°C 28.1°F-2.2°C 77% 4.1 mph NNE6.6 kmh NNE 9.4 mph15.1 kmh 30.06 in1017.9 mb 0.00 in0.0 mm 0.00 in0.0 mm 0.00 in0.0 mm
10:00 PM 34.5°F1.4°C 28.1°F-2.2°C 77% 3.5 mph NE5.6 kmh NE 10.5 mph16.9 kmh 30.06 in1017.9 mb 0.00 in0.0 mm 0.00 in0.0 mm 0.00 in0.0 mm
09:50 PM 34.3°F1.3°C 27.6°F-2.4°C 76% 3.1 mph NE5.0 kmh NE 6.9 mph11.1 kmh 30.06 in1017.9 mb 0.00 in0.0 mm 0.00 in0.0 mm 0.00 in0.0 mm
09:40 PM 34.3°F1.3°C 27.6°F-2.4°C 76% 3.6 mph NE5.8 kmh NE 8.7 mph14.0 kmh 30.06 in1017.9 mb 0.00 in0.0 mm 0.00 in0.0 mm 0.00 in0.0 mm
09:30 PM 34.3°F1.3°C 27.6°F-2.4°C 76% 3.8 mph ENE6.1 kmh ENE 7.8 mph12.6 kmh 30.05 in1017.6 mb 0.00 in0.0 mm 0.00 in0.0 mm 0.00 in0.0 mm
09:20 PM 34.3°F1.3°C 27.6°F-2.4°C 76% 3.7 mph E6.0 kmh E 6.9 mph11.1 kmh 30.05 in1017.6 mb 0.00 in0.0 mm 0.00 in0.0 mm 0.00 in0.0 mm
09:10 PM 34.3°F1.3°C 27.2°F-2.7°C 75% 2.6 mph ENE4.2 kmh ENE 6.0 mph9.7 kmh 30.05 in1017.6 mb 0.00 in0.0 mm 0.00 in0.0 mm 0.00 in0.0 mm
09:00 PM 34.5°F1.4°C 27.4°F-2.6°C 75% 2.8 mph ENE4.5 kmh ENE 6.3 mph10.1 kmh 30.05 in1017.6 mb 0.00 in0.0 mm 0.00 in0.0 mm 0.00 in0.0 mm
08:50 PM 34.5°F1.4°C 27.1°F-2.7°C 74% 2.7 mph ENE4.3 kmh ENE 7.6 mph12.2 kmh 30.04 in1017.3 mb 0.00 in0.0 mm 0.00 in0.0 mm 0.00 in0.0 mm
08:40 PM 34.9°F1.6°C 27.4°F-2.6°C 74% 3.6 mph NE5.8 kmh NE 8.3 mph13.4 kmh 30.04 in1017.3 mb 0.00 in0.0 mm 0.00 in0.0 mm 0.00 in0.0 mm
08:30 PM 34.9°F1.6°C 27.4°F-2.6°C 74% 3.5 mph NE5.6 kmh NE 11.4 mph18.3 kmh 30.04 in1017.3 mb 0.00 in0.0 mm 0.00 in0.0 mm 0.00 in0.0 mm
08:20 PM 35.1°F1.7°C 27.3°F-2.6°C 73% 2.7 mph NE4.3 kmh NE 6.9 mph11.1 kmh 30.04 in1017.3 mb 0.00 in0.0 mm 0.00 in0.0 mm 0.00 in0.0 mm
08:10 PM 35.2°F1.8°C 27.4°F-2.6°C 73% 2.8 mph NE4.5 kmh NE 7.4 mph11.9 kmh 30.04 in1017.3 mb 0.00 in0.0 mm 0.00 in0.0 mm 0.00 in0.0 mm
08:00 PM 35.2°F1.8°C 27.4°F-2.6°C 73% 3.5 mph ENE5.6 kmh ENE 9.4 mph15.1 kmh 30.04 in1017.3 mb 0.00 in0.0 mm 0.00 in0.0 mm 0.00 in0.0 mm
07:50 PM 35.4°F1.9°C 27.3°F-2.6°C 72% 3.0 mph E4.8 kmh E 6.0 mph9.7 kmh 30.04 in1017.3 mb 0.00 in0.0 mm 0.00 in0.0 mm 0.00 in0.0 mm
07:40 PM 35.4°F1.9°C 27.3°F-2.6°C 72% 3.0 mph ENE4.8 kmh ENE 5.8 mph9.3 kmh 30.03 in1016.9 mb 0.00 in0.0 mm 0.00 in0.0 mm 0.00 in0.0 mm
07:30 PM 35.8°F2.1°C 27.3°F-2.6°C 71% 3.3 mph ENE5.3 kmh ENE 6.0 mph9.7 kmh 30.03 in1016.9 mb 0.00 in0.0 mm 0.00 in0.0 mm 0.00 in0.0 mm
07:20 PM 36.0°F2.2°C 27.1°F-2.7°C 70% 3.3 mph ENE5.3 kmh ENE 8.1 mph13.0 kmh 30.02 in1016.6 mb 0.00 in0.0 mm 0.00 in0.0 mm 0.00 in0.0 mm
07:10 PM 36.1°F2.3°C 27.3°F-2.6°C 70% 2.2 mph NE3.5 kmh NE 8.3 mph13.4 kmh 30.02 in1016.6 mb 0.00 in0.0 mm 0.00 in0.0 mm 0.00 in0.0 mm
07:00 PM 36.5°F2.5°C 27.3°F-2.6°C 69% 1.5 mph NE2.4 kmh NE 4.7 mph7.6 kmh 30.02 in1016.6 mb 0.00 in0.0 mm 0.00 in0.0 mm 0.00 in0.0 mm
06:50 PM 36.7°F2.6°C 27.5°F-2.5°C 69% 2.8 mph NE4.5 kmh NE 8.9 mph14.3 kmh 30.02 in1016.6 mb 0.00 in0.0 mm 0.00 in0.0 mm 0.00 in0.0 mm
06:40 PM 37.0°F2.8°C 27.8°F-2.3°C 69% 3.0 mph NE4.8 kmh NE 7.2 mph11.6 kmh 30.02 in1016.6 mb 0.00 in0.0 mm 0.00 in0.0 mm 0.00 in0.0 mm
06:30 PM 37.2°F2.9°C 27.6°F-2.4°C 68% 3.2 mph NE5.1 kmh NE 7.4 mph11.9 kmh 30.02 in1016.6 mb 0.00 in0.0 mm 0.00 in0.0 mm 0.00 in0.0 mm
06:20 PM 37.6°F3.1°C 27.6°F-2.4°C 67% 4.0 mph NE6.4 kmh NE 8.5 mph13.7 kmh 30.02 in1016.6 mb 0.00 in0.0 mm 0.00 in0.0 mm 0.00 in0.0 mm
06:10 PM 38.1°F3.4°C 27.8°F-2.3°C 66% 3.6 mph NE5.8 kmh NE 8.5 mph13.7 kmh 30.01 in1016.3 mb 0.00 in0.0 mm 0.00 in0.0 mm 0.00 in0.0 mm
06:00 PM 38.7°F3.7°C 27.9°F-2.3°C 65% 2.7 mph NE4.3 kmh NE 5.1 mph8.2 kmh 30.00 in1015.9 mb 0.00 in0.0 mm 0.00 in0.0 mm 0.00 in0.0 mm
05:50 PM 39.0°F3.9°C 28.2°F-2.1°C 65% 2.9 mph ENE4.7 kmh ENE 6.7 mph10.8 kmh 30.01 in1016.3 mb 0.00 in0.0 mm 0.00 in0.0 mm 0.00 in0.0 mm
05:40 PM 39.7°F4.3°C 28.5°F-1.9°C 64% 2.5 mph NE4.0 kmh NE 6.7 mph10.8 kmh 30.00 in1015.9 mb 0.00 in0.0 mm 0.00 in0.0 mm 0.00 in0.0 mm
05:30 PM 40.1°F4.5°C 28.5°F-1.9°C 63% 1.7 mph ENE2.7 kmh ENE 5.1 mph8.2 kmh 29.99 in1015.6 mb 0.00 in0.0 mm 0.00 in0.0 mm 0.00 in0.0 mm
05:20 PM 40.8°F4.9°C 29.2°F-1.6°C 63% 1.9 mph ENE3.1 kmh ENE 4.5 mph7.2 kmh 29.99 in1015.6 mb 0.00 in0.0 mm 0.00 in0.0 mm 0.00 in0.0 mm
05:10 PM 41.4°F5.2°C 29.3°F-1.5°C 62% 1.7 mph ENE2.7 kmh ENE 4.0 mph6.4 kmh 29.99 in1015.6 mb 0.00 in0.0 mm 0.00 in0.0 mm 0.00 in0.0 mm
05:00 PM 41.9°F5.5°C 29.4°F-1.4°C 61% 2.1 mph NE3.4 kmh NE 4.5 mph7.2 kmh 29.99 in1015.6 mb 0.00 in0.0 mm 0.00 in0.0 mm 0.00 in0.0 mm
04:50 PM 42.4°F5.8°C 29.9°F-1.2°C 61% 1.7 mph NE2.7 kmh NE 4.3 mph6.9 kmh 29.98 in1015.2 mb 0.00 in0.0 mm 0.00 in0.0 mm 0.00 in0.0 mm
04:40 PM 43.0°F6.1°C 30.4°F-0.9°C 61% 2.1 mph NE3.4 kmh NE 5.8 mph9.3 kmh 29.99 in1015.6 mb 0.00 in0.0 mm 0.00 in0.0 mm 0.00 in0.0 mm
04:30 PM 43.5°F6.4°C 30.5°F-0.8°C 60% 2.1 mph NE3.4 kmh NE 5.1 mph8.2 kmh 29.98 in1015.2 mb 0.00 in0.0 mm 0.00 in0.0 mm 0.00 in0.0 mm
04:20 PM 43.7°F6.5°C 30.3°F-0.9°C 59% 1.9 mph NE3.1 kmh NE 4.9 mph7.9 kmh 29.98 in1015.2 mb 0.00 in0.0 mm 0.00 in0.0 mm 0.00 in0.0 mm
04:10 PM 43.9°F6.6°C 30.5°F-0.8°C 59% 2.1 mph NE3.4 kmh NE 5.6 mph9.0 kmh 29.98 in1015.2 mb 0.00 in0.0 mm 0.00 in0.0 mm 0.00 in0.0 mm
04:00 PM 44.2°F6.8°C 30.4°F-0.9°C 58% 2.7 mph NNE4.3 kmh NNE 5.1 mph8.2 kmh 29.98 in1015.2 mb 0.00 in0.0 mm 0.00 in0.0 mm 0.00 in0.0 mm
03:50 PM 44.2°F6.8°C 30.4°F-0.9°C 58% 3.1 mph NNE5.0 kmh NNE 5.8 mph9.3 kmh 29.98 in1015.2 mb 0.00 in0.0 mm 0.00 in0.0 mm 0.00 in0.0 mm
03:40 PM 44.8°F7.1°C 30.5°F-0.8°C 57% 3.6 mph NNE5.8 kmh NNE 5.8 mph9.3 kmh 29.97 in1014.9 mb 0.00 in0.0 mm 0.00 in0.0 mm 0.00 in0.0 mm
03:30 PM 45.1°F7.3°C 30.4°F-0.9°C 56% 2.6 mph N4.2 kmh N 4.7 mph7.6 kmh 29.97 in1014.9 mb 0.00 in0.0 mm 0.00 in0.0 mm 0.00 in0.0 mm
03:20 PM 45.1°F7.3°C 30.4°F-0.9°C 56% 2.7 mph N4.3 kmh N 5.4 mph8.7 kmh 29.97 in1014.9 mb 0.00 in0.0 mm 0.00 in0.0 mm 0.00 in0.0 mm
03:10 PM 45.3°F7.4°C 30.5°F-0.8°C 56% 3.4 mph N5.5 kmh N 5.4 mph8.7 kmh 29.97 in1014.9 mb 0.00 in0.0 mm 0.00 in0.0 mm 0.00 in0.0 mm
03:00 PM 45.3°F7.4°C 30.1°F-1.1°C 55% 2.9 mph N4.7 kmh N 5.1 mph8.2 kmh 29.97 in1014.9 mb 0.00 in0.0 mm 0.00 in0.0 mm 0.00 in0.0 mm
02:50 PM 45.3°F7.4°C 30.5°F-0.8°C 56% 3.7 mph N6.0 kmh N 6.0 mph9.7 kmh 29.97 in1014.9 mb 0.00 in0.0 mm 0.00 in0.0 mm 0.00 in0.0 mm
02:40 PM 45.3°F7.4°C 30.5°F-0.8°C 56% 3.9 mph N6.3 kmh N 7.2 mph11.6 kmh 29.97 in1014.9 mb 0.00 in0.0 mm 0.00 in0.0 mm 0.00 in0.0 mm
02:30 PM 45.3°F7.4°C 30.5°F-0.8°C 56% 4.5 mph N7.2 kmh N 8.3 mph13.4 kmh 29.96 in1014.6 mb 0.00 in0.0 mm 0.00 in0.0 mm 0.00 in0.0 mm
02:20 PM 45.1°F7.3°C 30.8°F-0.7°C 57% 4.5 mph N7.2 kmh N 6.3 mph10.1 kmh 29.97 in1014.9 mb 0.00 in0.0 mm 0.00 in0.0 mm 0.00 in0.0 mm
02:10 PM 45.1°F7.3°C 30.8°F-0.7°C 57% 4.3 mph N6.9 kmh N 6.7 mph10.8 kmh 29.97 in1014.9 mb 0.00 in0.0 mm 0.00 in0.0 mm 0.00 in0.0 mm
02:00 PM 45.0°F7.2°C 30.5°F-0.8°C 57% 4.4 mph N7.1 kmh N 9.4 mph15.1 kmh 29.97 in1014.9 mb 0.00 in0.0 mm 0.00 in0.0 mm 0.00 in0.0 mm
01:50 PM 44.4°F6.9°C 30.6°F-0.8°C 58% 5.6 mph N9.0 kmh N 8.7 mph14.0 kmh 29.96 in1014.6 mb 0.00 in0.0 mm 0.00 in0.0 mm 0.00 in0.0 mm
01:40 PM 44.2°F6.8°C 30.4°F-0.9°C 58% 5.6 mph N9.0 kmh N 8.5 mph13.7 kmh 29.97 in1014.9 mb 0.00 in0.0 mm 0.00 in0.0 mm 0.00 in0.0 mm
01:30 PM 43.7°F6.5°C 29.9°F-1.2°C 58% 5.7 mph N9.2 kmh N 8.7 mph14.0 kmh 29.97 in1014.9 mb 0.00 in0.0 mm 0.00 in0.0 mm 0.00 in0.0 mm
01:20 PM 43.5°F6.4°C 29.7°F-1.3°C 58% 6.7 mph N10.8 kmh N 11.6 mph18.7 kmh 29.98 in1015.2 mb 0.00 in0.0 mm 0.00 in0.0 mm 0.00 in0.0 mm
01:10 PM 43.2°F6.2°C 29.4°F-1.4°C 58% 7.4 mph N11.9 kmh N 11.9 mph19.2 kmh 29.98 in1015.2 mb 0.00 in0.0 mm 0.00 in0.0 mm 0.00 in0.0 mm
01:00 PM 43.0°F6.1°C 29.2°F-1.6°C 58% 8.1 mph N13.0 kmh N 13.4 mph21.6 kmh 29.98 in1015.2 mb 0.00 in0.0 mm 0.00 in0.0 mm 0.00 in0.0 mm
12:50 PM 42.6°F5.9°C 29.3°F-1.5°C 59% 7.2 mph N11.6 kmh N 11.4 mph18.3 kmh 29.98 in1015.2 mb 0.00 in0.0 mm 0.00 in0.0 mm 0.00 in0.0 mm
12:40 PM 42.1°F5.6°C 29.6°F-1.3°C 61% 6.1 mph N9.8 kmh N 9.2 mph14.8 kmh 29.99 in1015.6 mb 0.00 in0.0 mm 0.00 in0.0 mm 0.00 in0.0 mm
12:30 PM 41.5°F5.3°C 29.1°F-1.6°C 61% 6.4 mph N10.3 kmh N 11.4 mph18.3 kmh 29.99 in1015.6 mb 0.00 in0.0 mm 0.00 in0.0 mm 0.00 in0.0 mm
12:20 PM 40.8°F4.9°C 29.6°F-1.3°C 64% 6.3 mph N10.1 kmh N 10.5 mph16.9 kmh 29.99 in1015.6 mb 0.00 in0.0 mm 0.00 in0.0 mm 0.00 in0.0 mm
12:10 PM 40.1°F4.5°C 29.6°F-1.3°C 66% 6.6 mph N10.6 kmh N 13.6 mph21.9 kmh 29.99 in1015.6 mb 0.00 in0.0 mm 0.00 in0.0 mm 0.00 in0.0 mm
12:00 PM 39.7°F4.3°C 29.7°F-1.3°C 67% 7.9 mph N12.7 kmh N 11.4 mph18.3 kmh 30.00 in1015.9 mb 0.00 in0.0 mm 0.00 in0.0 mm 0.00 in0.0 mm
11:50 AM 39.2°F4.0°C 29.5°F-1.4°C 68% 6.6 mph N10.6 kmh N 10.3 mph16.6 kmh 30.00 in1015.9 mb 0.00 in0.0 mm 0.00 in0.0 mm 0.00 in0.0 mm
11:40 AM 38.8°F3.8°C 29.2°F-1.6°C 68% 7.6 mph N12.2 kmh N 11.6 mph18.7 kmh 30.00 in1015.9 mb 0.00 in0.0 mm 0.00 in0.0 mm 0.00 in0.0 mm
11:30 AM 38.1°F3.4°C 28.8°F-1.8°C 69% 7.4 mph NNE11.9 kmh NNE 11.6 mph18.7 kmh 30.00 in1015.9 mb 0.00 in0.0 mm 0.00 in0.0 mm 0.00 in0.0 mm
11:20 AM 37.6°F3.1°C 28.3°F-2.1°C 69% 8.7 mph NNE14.0 kmh NNE 13.0 mph20.9 kmh 30.01 in1016.3 mb 0.00 in0.0 mm 0.00 in0.0 mm 0.00 in0.0 mm
11:10 AM 37.2°F2.9°C 28.0°F-2.2°C 69% 9.4 mph N15.1 kmh N 17.4 mph28.0 kmh 30.00 in1015.9 mb 0.00 in0.0 mm 0.00 in0.0 mm 0.00 in0.0 mm
11:00 AM 36.5°F2.5°C 28.0°F-2.2°C 71% 8.4 mph N13.5 kmh N 14.3 mph23.0 kmh 30.01 in1016.3 mb 0.00 in0.0 mm 0.00 in0.0 mm 0.00 in0.0 mm
10:50 AM 36.1°F2.3°C 27.6°F-2.4°C 71% 7.2 mph N11.6 kmh N 13.0 mph20.9 kmh 30.00 in1015.9 mb 0.00 in0.0 mm 0.00 in0.0 mm 0.00 in0.0 mm
10:40 AM 35.4°F1.9°C 27.6°F-2.4°C 73% 7.3 mph NNE11.7 kmh NNE 14.5 mph23.3 kmh 30.01 in1016.3 mb 0.00 in0.0 mm 0.00 in0.0 mm 0.00 in0.0 mm
10:30 AM 34.5°F1.4°C 26.8°F-2.9°C 73% 6.1 mph NNE9.8 kmh NNE 10.7 mph17.2 kmh 30.02 in1016.6 mb 0.00 in0.0 mm 0.00 in0.0 mm 0.00 in0.0 mm
10:20 AM 34.0°F1.1°C 26.6°F-3.0°C 74% 4.6 mph NNE7.4 kmh NNE 8.9 mph14.3 kmh 30.01 in1016.3 mb 0.00 in0.0 mm 0.00 in0.0 mm 0.00 in0.0 mm
10:10 AM 33.6°F0.9°C 26.2°F-3.2°C 74% 3.4 mph NNE5.5 kmh NNE 9.8 mph15.8 kmh 30.01 in1016.3 mb 0.00 in0.0 mm 0.00 in0.0 mm 0.00 in0.0 mm
10:00 AM 33.4°F0.8°C 26.0°F-3.3°C 74% 3.4 mph NNE5.5 kmh NNE 8.3 mph13.4 kmh 30.01 in1016.3 mb 0.00 in0.0 mm 0.00 in0.0 mm 0.00 in0.0 mm
09:50 AM 33.1°F0.6°C 25.7°F-3.5°C 74% 3.6 mph NE5.8 kmh NE 8.5 mph13.7 kmh 30.01 in1016.3 mb 0.00 in0.0 mm 0.00 in0.0 mm 0.00 in0.0 mm
09:40 AM 32.9°F0.5°C 25.5°F-3.6°C 74% 3.7 mph NNE6.0 kmh NNE 9.2 mph14.8 kmh 30.01 in1016.3 mb 0.00 in0.0 mm 0.00 in0.0 mm 0.00 in0.0 mm
09:30 AM 32.7°F0.4°C 25.3°F-3.7°C 74% 4.3 mph NNE6.9 kmh NNE 10.5 mph16.9 kmh 30.01 in1016.3 mb 0.00 in0.0 mm 0.00 in0.0 mm 0.00 in0.0 mm
09:20 AM 32.7°F0.4°C 25.3°F-3.7°C 74% 6.2 mph NNE10.0 kmh NNE 11.4 mph18.3 kmh 30.01 in1016.3 mb 0.00 in0.0 mm 0.00 in0.0 mm 0.00 in0.0 mm
09:10 AM 32.5°F0.3°C 24.8°F-4.0°C 73% 4.7 mph NNE7.6 kmh NNE 9.8 mph15.8 kmh 30.00 in1015.9 mb 0.00 in0.0 mm 0.00 in0.0 mm 0.00 in0.0 mm
09:00 AM 32.4°F0.2°C 24.7°F-4.1°C 73% 4.8 mph NNE7.7 kmh NNE 10.5 mph16.9 kmh 30.00 in1015.9 mb 0.00 in0.0 mm 0.00 in0.0 mm 0.00 in0.0 mm
08:50 AM 32.4°F0.2°C 24.7°F-4.1°C 73% 4.3 mph NNE6.9 kmh NNE 8.7 mph14.0 kmh 30.00 in1015.9 mb 0.00 in0.0 mm 0.00 in0.0 mm 0.00 in0.0 mm
08:40 AM 32.2°F0.1°C 24.5°F-4.2°C 73% 5.0 mph NNE8.0 kmh NNE 10.5 mph16.9 kmh 29.99 in1015.6 mb 0.00 in0.0 mm 0.00 in0.0 mm 0.00 in0.0 mm
08:30 AM 32.2°F0.1°C 24.5°F-4.2°C 73% 4.6 mph NE7.4 kmh NE 9.4 mph15.1 kmh 29.99 in1015.6 mb 0.00 in0.0 mm 0.00 in0.0 mm 0.00 in0.0 mm
08:20 AM 32.4°F0.2°C 24.7°F-4.1°C 73% 3.2 mph NE5.1 kmh NE 7.4 mph11.9 kmh 29.99 in1015.6 mb 0.00 in0.0 mm 0.00 in0.0 mm 0.00 in0.0 mm
08:10 AM 32.5°F0.3°C 24.8°F-4.0°C 73% 2.9 mph NE4.7 kmh NE 8.5 mph13.7 kmh 29.99 in1015.6 mb 0.00 in0.0 mm 0.00 in0.0 mm 0.00 in0.0 mm
08:00 AM 32.5°F0.3°C 24.8°F-4.0°C 73% 3.2 mph NE5.1 kmh NE 8.9 mph14.3 kmh 29.98 in1015.2 mb 0.00 in0.0 mm 0.00 in0.0 mm 0.00 in0.0 mm
07:50 AM 32.5°F0.3°C 24.8°F-4.0°C 73% 4.3 mph NE6.9 kmh NE 10.3 mph16.6 kmh 29.99 in1015.6 mb 0.00 in0.0 mm 0.00 in0.0 mm 0.00 in0.0 mm
07:40 AM 32.5°F0.3°C 24.8°F-4.0°C 73% 5.1 mph NNE8.2 kmh NNE 10.1 mph16.3 kmh 29.98 in1015.2 mb 0.00 in0.0 mm 0.00 in0.0 mm 0.00 in0.0 mm
07:30 AM 32.5°F0.3°C 24.5°F-4.2°C 72% 4.6 mph NNE7.4 kmh NNE 10.5 mph16.9 kmh 29.98 in1015.2 mb 0.00 in0.0 mm 0.00 in0.0 mm 0.00 in0.0 mm
07:20 AM 32.5°F0.3°C 24.5°F-4.2°C 72% 5.9 mph NNE9.5 kmh NNE 10.5 mph16.9 kmh 29.98 in1015.2 mb 0.00 in0.0 mm 0.00 in0.0 mm 0.00 in0.0 mm
07:10 AM 32.5°F0.3°C 24.5°F-4.2°C 72% 5.6 mph NNE9.0 kmh NNE 10.5 mph16.9 kmh 29.98 in1015.2 mb 0.00 in0.0 mm 0.00 in0.0 mm 0.00 in0.0 mm
07:00 AM 32.5°F0.3°C 24.5°F-4.2°C 72% 4.9 mph NNE7.9 kmh NNE 12.5 mph20.1 kmh 29.98 in1015.2 mb 0.00 in0.0 mm 0.00 in0.0 mm 0.00 in0.0 mm
06:50 AM 32.5°F0.3°C 24.2°F-4.3°C 71% 4.0 mph NNE6.4 kmh NNE 10.1 mph16.3 kmh 29.98 in1015.2 mb 0.00 in0.0 mm 0.00 in0.0 mm 0.00 in0.0 mm
06:40 AM 32.5°F0.3°C 24.2°F-4.3°C 71% 4.2 mph NNE6.8 kmh NNE 8.1 mph13.0 kmh 29.98 in1015.2 mb 0.00 in0.0 mm 0.00 in0.0 mm 0.00 in0.0 mm
06:30 AM 32.7°F0.4°C 24.3°F-4.3°C 71% 3.4 mph NNE5.5 kmh NNE 6.3 mph10.1 kmh 29.98 in1015.2 mb 0.00 in0.0 mm 0.00 in0.0 mm 0.00 in0.0 mm
06:20 AM 32.9°F0.5°C 24.5°F-4.2°C 71% 3.7 mph NNE6.0 kmh NNE 8.3 mph13.4 kmh 29.98 in1015.2 mb 0.00 in0.0 mm 0.00 in0.0 mm 0.00 in0.0 mm
06:10 AM 33.1°F0.6°C 24.4°F-4.2°C 70% 3.8 mph NE6.1 kmh NE 7.2 mph11.6 kmh 29.98 in1015.2 mb 0.00 in0.0 mm 0.00 in0.0 mm 0.00 in0.0 mm
06:00 AM 33.4°F0.8°C 24.7°F-4.1°C 70% 3.6 mph NE5.8 kmh NE 6.9 mph11.1 kmh 29.98 in1015.2 mb 0.00 in0.0 mm 0.00 in0.0 mm 0.00 in0.0 mm
05:50 AM 33.4°F0.8°C 24.7°F-4.1°C 70% 3.6 mph NNE5.8 kmh NNE 8.5 mph13.7 kmh 29.98 in1015.2 mb 0.00 in0.0 mm 0.00 in0.0 mm 0.00 in0.0 mm
05:40 AM 33.6°F0.9°C 24.9°F-3.9°C 70% 4.5 mph N7.2 kmh N 9.4 mph15.1 kmh 29.97 in1014.9 mb 0.00 in0.0 mm 0.00 in0.0 mm 0.00 in0.0 mm
05:30 AM 33.6°F0.9°C 24.9°F-3.9°C 70% 4.4 mph N7.1 kmh N 9.8 mph15.8 kmh 29.98 in1015.2 mb 0.00 in0.0 mm 0.00 in0.0 mm 0.00 in0.0 mm
05:20 AM 33.6°F0.9°C 24.9°F-3.9°C 70% 5.0 mph NNE8.0 kmh NNE 9.4 mph15.1 kmh 29.98 in1015.2 mb 0.00 in0.0 mm 0.00 in0.0 mm 0.00 in0.0 mm
05:10 AM 33.6°F0.9°C 24.9°F-3.9°C 70% 3.7 mph NNE6.0 kmh NNE 9.2 mph14.8 kmh 29.98 in1015.2 mb 0.00 in0.0 mm 0.00 in0.0 mm 0.00 in0.0 mm
05:00 AM 33.6°F0.9°C 24.5°F-4.2°C 69% 4.3 mph NNE6.9 kmh NNE 9.8 mph15.8 kmh 29.98 in1015.2 mb 0.00 in0.0 mm 0.00 in0.0 mm 0.00 in0.0 mm
04:50 AM 33.6°F0.9°C 24.5°F-4.2°C 69% 4.6 mph NNE7.4 kmh NNE 11.9 mph19.2 kmh 29.98 in1015.2 mb 0.00 in0.0 mm 0.00 in0.0 mm 0.00 in0.0 mm
04:40 AM 34.0°F1.1°C 24.9°F-3.9°C 69% 2.6 mph NE4.2 kmh NE 6.9 mph11.1 kmh 29.98 in1015.2 mb 0.00 in0.0 mm 0.00 in0.0 mm 0.00 in0.0 mm
04:30 AM 34.0°F1.1°C 24.5°F-4.2°C 68% 3.7 mph NE6.0 kmh NE 8.1 mph13.0 kmh 29.98 in1015.2 mb 0.00 in0.0 mm 0.00 in0.0 mm 0.00 in0.0 mm
04:20 AM 34.3°F1.3°C 24.9°F-3.9°C 68% 2.8 mph NE4.5 kmh NE 5.1 mph8.2 kmh 29.98 in1015.2 mb 0.00 in0.0 mm 0.00 in0.0 mm 0.00 in0.0 mm
04:10 AM 34.5°F1.4°C 25.0°F-3.9°C 68% 4.2 mph NNE6.8 kmh NNE 10.5 mph16.9 kmh 29.99 in1015.6 mb 0.00 in0.0 mm 0.00 in0.0 mm 0.00 in0.0 mm
04:00 AM 34.5°F1.4°C 25.0°F-3.9°C 68% 3.3 mph NE5.3 kmh NE 8.1 mph13.0 kmh 29.98 in1015.2 mb 0.00 in0.0 mm 0.00 in0.0 mm 0.00 in0.0 mm
03:50 AM 34.9°F1.6°C 25.4°F-3.7°C 68% 4.6 mph NNE7.4 kmh NNE 10.3 mph16.6 kmh 29.99 in1015.6 mb 0.00 in0.0 mm 0.00 in0.0 mm 0.00 in0.0 mm
03:40 AM 34.9°F1.6°C 25.4°F-3.7°C 68% 6.3 mph N10.1 kmh N 9.8 mph15.8 kmh 29.98 in1015.2 mb 0.00 in0.0 mm 0.00 in0.0 mm 0.00 in0.0 mm
03:30 AM 34.9°F1.6°C 25.4°F-3.7°C 68% 7.0 mph N11.3 kmh N 12.3 mph19.8 kmh 29.99 in1015.6 mb 0.00 in0.0 mm 0.00 in0.0 mm 0.00 in0.0 mm
03:20 AM 35.1°F1.7°C 25.6°F-3.6°C 68% 7.5 mph N12.1 kmh N 13.4 mph21.6 kmh 29.98 in1015.2 mb 0.00 in0.0 mm 0.00 in0.0 mm 0.00 in0.0 mm
03:10 AM 35.1°F1.7°C 25.6°F-3.6°C 68% 7.6 mph N12.2 kmh N 13.0 mph20.9 kmh 29.98 in1015.2 mb 0.00 in0.0 mm 0.00 in0.0 mm 0.00 in0.0 mm
03:00 AM 35.2°F1.8°C 25.7°F-3.5°C 68% 5.7 mph N9.2 kmh N 11.4 mph18.3 kmh 29.99 in1015.6 mb 0.00 in0.0 mm 0.00 in0.0 mm 0.00 in0.0 mm
02:50 AM 35.2°F1.8°C 25.7°F-3.5°C 68% 5.9 mph N9.5 kmh N 12.1 mph19.5 kmh 29.99 in1015.6 mb 0.00 in0.0 mm 0.00 in0.0 mm 0.00 in0.0 mm
02:40 AM 35.2°F1.8°C 25.7°F-3.5°C 68% 5.9 mph N9.5 kmh N 9.8 mph15.8 kmh 30.00 in1015.9 mb 0.00 in0.0 mm 0.00 in0.0 mm 0.00 in0.0 mm
02:30 AM 35.4°F1.9°C 25.5°F-3.6°C 67% 5.7 mph N9.2 kmh N 11.9 mph19.2 kmh 29.99 in1015.6 mb 0.00 in0.0 mm 0.00 in0.0 mm 0.00 in0.0 mm
02:20 AM 35.4°F1.9°C 25.5°F-3.6°C 67% 5.8 mph N9.3 kmh N 12.5 mph20.1 kmh 29.98 in1015.2 mb 0.00 in0.0 mm 0.00 in0.0 mm 0.00 in0.0 mm
02:10 AM 35.8°F2.1°C 25.9°F-3.4°C 67% 4.4 mph N7.1 kmh N 9.2 mph14.8 kmh 29.99 in1015.6 mb 0.00 in0.0 mm 0.00 in0.0 mm 0.00 in0.0 mm
02:00 AM 35.8°F2.1°C 25.9°F-3.4°C 67% 6.4 mph N10.3 kmh N 10.7 mph17.2 kmh 29.98 in1015.2 mb 0.00 in0.0 mm 0.00 in0.0 mm 0.00 in0.0 mm
01:50 AM 36.0°F2.2°C 25.7°F-3.5°C 66% 6.6 mph N10.6 kmh N 12.5 mph20.1 kmh 29.99 in1015.6 mb 0.00 in0.0 mm 0.00 in0.0 mm 0.00 in0.0 mm
01:40 AM 36.1°F2.3°C 25.9°F-3.4°C 66% 5.6 mph NNE9.0 kmh NNE 12.5 mph20.1 kmh 29.99 in1015.6 mb 0.00 in0.0 mm 0.00 in0.0 mm 0.00 in0.0 mm
01:30 AM 36.1°F2.3°C 25.9°F-3.4°C 66% 5.9 mph N9.5 kmh N 15.4 mph24.8 kmh 29.98 in1015.2 mb 0.00 in0.0 mm 0.00 in0.0 mm 0.00 in0.0 mm
01:20 AM 36.3°F2.4°C 26.0°F-3.3°C 66% 6.0 mph N9.7 kmh N 12.3 mph19.8 kmh 29.99 in1015.6 mb 0.00 in0.0 mm 0.00 in0.0 mm 0.00 in0.0 mm
01:10 AM 36.5°F2.5°C 26.2°F-3.2°C 66% 5.8 mph N9.3 kmh N 11.9 mph19.2 kmh 29.99 in1015.6 mb 0.00 in0.0 mm 0.00 in0.0 mm 0.00 in0.0 mm
01:00 AM 36.7°F2.6°C 26.4°F-3.1°C 66% 5.9 mph N9.5 kmh N 11.2 mph18.0 kmh 29.98 in1015.2 mb 0.00 in0.0 mm 0.00 in0.0 mm 0.00 in0.0 mm
12:50 AM 36.7°F2.6°C 26.4°F-3.1°C 66% 7.8 mph N12.6 kmh N 14.5 mph23.3 kmh 29.99 in1015.6 mb 0.00 in0.0 mm 0.00 in0.0 mm 0.00 in0.0 mm
12:40 AM 36.5°F2.5°C 26.2°F-3.2°C 66% 6.5 mph N10.5 kmh N 16.1 mph25.9 kmh 30.00 in1015.9 mb 0.00 in0.0 mm 0.00 in0.0 mm 0.00 in0.0 mm
12:30 AM 36.5°F2.5°C 26.2°F-3.2°C 66% 6.7 mph N10.8 kmh N 13.6 mph21.9 kmh 30.00 in1015.9 mb 0.00 in0.0 mm 0.00 in0.0 mm 0.00 in0.0 mm
12:20 AM 36.5°F2.5°C 26.2°F-3.2°C 66% 7.5 mph N12.1 kmh N 13.9 mph22.4 kmh 30.00 in1015.9 mb 0.00 in0.0 mm 0.00 in0.0 mm 0.00 in0.0 mm
12:10 AM 36.7°F2.6°C 26.4°F-3.1°C 66% 9.2 mph N14.8 kmh N 14.5 mph23.3 kmh 30.00 in1015.9 mb 0.00 in0.0 mm 0.00 in0.0 mm 0.00 in0.0 mm
12:00 AM 36.7°F2.6°C 26.4°F-3.1°C 66% 7.7 mph NNE12.4 kmh NNE 14.5 mph23.3 kmh 30.00 in1015.9 mb 0.00 in0.0 mm 0.00 in0.0 mm 0.00 in0.0 mm